Time;durP1;ratioP1;P1;durP2;ratioP2;P2;SDS_P1;SDS_P2;PMS_P1;PMS_P2;Temp;Humidity;BMP_temperature;BMP_pressure;BME280_temperature;BME280_humidity;BME280_pressure;Samples;Min_cycle;Max_cycle;Signal;HPM_P1;HPM_P2
2023/07/20 00:00:13;;;;;;;5.03;4.70;;;18.40;1.00;;;;;;5036970;28;20564;-75
2023/07/20 00:02:41;;;;;;;5.17;4.77;;;18.40;1.00;;;;;;5031153;28;20476;-75
2023/07/20 00:05:08;;;;;;;5.40;4.93;;;18.40;1.00;;;;;;5041151;28;20457;-75
2023/07/20 00:07:35;;;;;;;5.10;4.73;;;18.30;1.00;;;;;;5041161;28;20455;-77
2023/07/20 00:10:02;;;;;;;5.33;4.97;;;18.30;1.00;;;;;;5038507;28;20534;-77
2023/07/20 00:12:30;;;;;;;6.20;5.60;;;18.30;1.00;;;;;;5038953;28;20477;-77
2023/07/20 00:14:57;;;;;;;5.77;5.30;;;18.30;1.00;;;;;;5033057;28;20502;-76
2023/07/20 00:17:24;;;;;;;5.90;5.40;;;18.30;1.00;;;;;;5037669;28;20458;-77
2023/07/20 00:19:51;;;;;;;5.63;5.23;;;18.20;1.00;;;;;;5037189;28;20512;-77
2023/07/20 00:22:20;;;;;;;5.47;5.07;;;18.10;1.00;;;;;;5038510;28;20659;-77
2023/07/20 00:24:47;;;;;;;9.03;5.83;;;18.10;1.00;;;;;;5029283;28;20465;-76
2023/07/20 00:27:14;;;;;;;5.40;5.00;;;18.10;1.00;;;;;;5033155;28;20855;-77
2023/07/20 00:29:42;;;;;;;5.33;4.93;;;18.10;1.00;;;;;;5034921;28;20539;-77
2023/07/20 00:32:09;;;;;;;6.07;5.50;;;18.10;1.00;;;;;;5038875;28;21855;-76
2023/07/20 00:34:36;;;;;;;5.63;5.13;;;18.10;1.00;;;;;;5042421;28;20562;-77
2023/07/20 00:37:03;;;;;;;5.43;4.93;;;18.00;1.00;;;;;;5038807;28;20461;-76
2023/07/20 00:39:30;;;;;;;5.97;5.20;;;18.00;1.00;;;;;;5043834;28;20485;-76
2023/07/20 00:41:57;;;;;;;5.37;4.97;;;18.00;1.00;;;;;;5040975;28;20567;-76
2023/07/20 00:44:24;;;;;;;5.67;5.23;;;18.00;1.00;;;;;;5044068;28;20533;-77
2023/07/20 00:46:53;;;;;;;6.57;5.93;;;18.00;1.00;;;;;;5041797;28;20622;-77
2023/07/20 00:49:21;;;;;;;6.03;5.37;;;17.90;1.00;;;;;;5043299;28;20477;-77
2023/07/20 00:51:50;;;;;;;5.97;5.50;;;17.90;1.00;;;;;;5039379;28;20457;-77
2023/07/20 00:54:17;;;;;;;5.70;5.30;;;17.90;1.00;;;;;;5037338;28;20453;-76
2023/07/20 00:56:45;;;;;;;5.43;4.97;;;17.90;1.00;;;;;;5039010;28;20463;-76
2023/07/20 00:59:13;;;;;;;6.03;5.53;;;17.90;1.00;;;;;;5038587;28;20484;-77
2023/07/20 01:04:09;;;;;;;6.23;5.73;;;17.90;1.00;;;;;;4997535;28;20844;-69
2023/07/20 01:06:46;;;;;;;7.73;6.00;;;17.90;1.00;;;;;;5000864;28;20499;-69
2023/07/20 01:09:17;;;;;;;7.77;7.03;;;18.00;1.00;;;;;;5004884;28;20482;-70
2023/07/20 01:11:52;;;;;;;7.27;6.63;;;17.90;1.00;;;;;;5005210;28;20463;-69
2023/07/20 01:14:20;;;;;;;7.23;6.53;;;17.90;1.00;;;;;;5004866;28;20554;-72
2023/07/20 01:16:49;;;;;;;6.97;6.47;;;17.90;1.00;;;;;;5000229;28;20594;-71
2023/07/20 01:19:17;;;;;;;5.87;5.43;;;17.90;1.00;;;;;;5002617;28;20482;-71
2023/07/20 01:21:51;;;;;;;6.80;6.20;;;17.90;1.00;;;;;;5006229;28;20545;-71
2023/07/20 01:25:05;;;;;;;6.80;6.20;;;17.80;1.00;;;;;;5006057;28;20549;-70
2023/07/20 01:28:09;;;;;;;6.33;5.93;;;17.80;1.00;;;;;;5002808;28;20971;-70
2023/07/20 01:30:54;;;;;;;6.50;6.00;;;17.70;1.00;;;;;;5001202;28;20525;-71
2023/07/20 01:33:25;;;;;;;6.07;5.60;;;17.70;1.00;;;;;;4996535;28;20493;-70
2023/07/20 01:35:55;;;;;;;6.90;6.40;;;17.60;1.00;;;;;;4993983;28;20474;-72
2023/07/20 01:38:24;;;;;;;6.97;6.37;;;17.60;1.00;;;;;;4995246;28;20537;-69
2023/07/20 01:40:52;;;;;;;7.50;6.83;;;17.60;1.00;;;;;;4992028;28;21050;-69
2023/07/20 01:43:19;;;;;;;7.43;6.73;;;17.60;1.00;;;;;;4992838;28;20469;-70
2023/07/20 01:45:47;;;;;;;7.70;7.10;;;17.60;1.00;;;;;;5004396;28;20471;-72
2023/07/20 01:48:14;;;;;;;7.00;6.40;;;17.70;1.00;;;;;;5007675;28;20462;-70
2023/07/20 01:50:42;;;;;;;7.30;6.70;;;17.80;1.00;;;;;;5008217;28;20511;-69
2023/07/20 01:53:10;;;;;;;7.20;6.70;;;17.80;1.00;;;;;;5006379;28;20470;-70
2023/07/20 01:55:36;;;;;;;8.13;7.50;;;17.80;1.00;;;;;;5005776;28;20463;-70
2023/07/20 01:58:03;;;;;;;8.50;7.80;;;17.80;1.00;;;;;;5005158;28;20565;-70
2023/07/20 02:00:31;;;;;;;8.00;7.50;;;17.70;1.00;;;;;;5004908;28;21734;-71
2023/07/20 02:02:58;;;;;;;8.20;7.60;;;17.70;1.00;;;;;;5009211;28;20962;-70
2023/07/20 02:05:25;;;;;;;8.40;7.80;;;17.70;1.00;;;;;;5029096;28;20552;-70
2023/07/20 02:07:53;;;;;;;9.60;8.00;;;17.70;1.00;;;;;;5025889;28;20828;-71
2023/07/20 02:10:20;;;;;;;9.63;8.70;;;17.70;1.00;;;;;;5021933;28;20469;-70
2023/07/20 02:12:47;;;;;;;9.80;8.93;;;17.80;1.00;;;;;;5024187;28;20474;-71
2023/07/20 02:15:16;;;;;;;8.10;7.57;;;17.70;1.00;;;;;;5016925;28;20458;-71
2023/07/20 02:17:43;;;;;;;8.13;7.63;;;17.70;1.00;;;;;;5020822;28;20570;-70
2023/07/20 02:20:11;;;;;;;7.90;7.37;;;17.70;1.00;;;;;;5029219;28;20478;-70
2023/07/20 02:22:38;;;;;;;7.43;6.83;;;17.80;1.00;;;;;;5015572;28;20458;-71
2023/07/20 02:25:08;;;;;;;8.23;7.70;;;17.80;1.00;;;;;;5016309;28;20607;-70
2023/07/20 02:27:35;;;;;;;8.10;7.50;;;17.80;1.00;;;;;;5012674;28;20544;-70
2023/07/20 02:30:03;;;;;;;7.23;6.73;;;17.70;1.00;;;;;;5018870;28;20484;-70
2023/07/20 02:32:31;;;;;;;8.50;7.70;;;17.70;1.00;;;;;;5018484;28;20444;-70
2023/07/20 02:34:58;;;;;;;7.73;7.03;;;17.60;1.00;;;;;;5030557;28;20461;-70
2023/07/20 02:37:25;;;;;;;7.23;6.70;;;17.60;1.00;;;;;;5026882;28;20915;-71
2023/07/20 02:39:52;;;;;;;8.73;6.80;;;17.50;1.00;;;;;;5024156;28;20869;-70
2023/07/20 02:42:22;;;;;;;7.90;7.20;;;17.50;1.00;;;;;;5029241;28;20561;-71
2023/07/20 02:44:49;;;;;;;8.60;7.80;;;17.50;1.00;;;;;;5026366;28;20473;-70
2023/07/20 02:47:16;;;;;;;8.90;8.20;;;17.50;1.00;;;;;;5027023;28;20586;-70
2023/07/20 02:49:43;;;;;;;9.77;8.67;;;17.40;1.00;;;;;;5029487;28;21014;-72
2023/07/20 02:52:10;;;;;;;12.07;10.57;;;17.40;1.00;;;;;;5026846;28;20454;-71
2023/07/20 02:54:37;;;;;;;10.50;9.70;;;17.40;1.00;;;;;;5027180;28;20548;-71
2023/07/20 02:57:04;;;;;;;12.30;11.33;;;17.40;1.00;;;;;;5026898;28;20574;-72
2023/07/20 02:59:33;;;;;;;11.43;10.53;;;17.40;1.00;;;;;;5025318;28;20548;-69
2023/07/20 03:02:00;;;;;;;12.90;11.90;;;17.30;1.00;;;;;;5022006;28;20559;-70
2023/07/20 03:04:27;;;;;;;13.50;12.07;;;17.20;1.00;;;;;;5024309;28;20608;-71
2023/07/20 03:06:54;;;;;;;13.13;12.00;;;17.10;1.00;;;;;;5028332;28;20457;-70
2023/07/20 03:09:21;;;;;;;12.33;11.20;;;17.10;1.00;;;;;;5021026;28;20476;-70
2023/07/20 03:11:49;;;;;;;12.60;11.40;;;17.20;1.00;;;;;;5028148;28;20511;-70
2023/07/20 03:14:16;;;;;;;11.93;10.97;;;17.20;1.00;;;;;;5025525;28;20972;-71
2023/07/20 03:16:44;;;;;;;11.93;10.93;;;17.20;1.00;;;;;;5025921;28;20475;-70
2023/07/20 03:19:11;;;;;;;13.50;12.40;;;17.20;1.00;;;;;;5025519;28;21419;-70
2023/07/20 03:21:40;;;;;;;12.50;11.43;;;17.20;1.00;;;;;;5029580;28;20469;-70
2023/07/20 03:24:08;;;;;;;13.23;11.93;;;17.30;1.00;;;;;;5024754;28;20461;-70
2023/07/20 03:26:35;;;;;;;12.83;11.73;;;17.20;1.00;;;;;;5019532;28;20471;-70
2023/07/20 03:29:03;;;;;;;12.97;11.77;;;17.20;1.00;;;;;;5024344;28;20987;-70
2023/07/20 03:31:30;;;;;;;11.90;10.67;;;17.20;1.00;;;;;;5024442;28;20507;-70
2023/07/20 03:33:58;;;;;;;12.10;11.10;;;17.20;1.00;;;;;;5025352;28;20453;-71
2023/07/20 03:36:25;;;;;;;12.27;11.27;;;17.20;1.00;;;;;;5025057;28;20484;-70
2023/07/20 03:38:52;;;;;;;11.50;10.20;;;17.30;1.00;;;;;;5011310;28;20477;-69
2023/07/20 03:41:19;;;;;;;11.57;10.63;;;17.30;1.00;;;;;;5013365;28;20489;-71
2023/07/20 03:43:46;;;;;;;13.60;12.43;;;17.30;1.00;;;;;;5011778;28;20506;-74
2023/07/20 03:46:13;;;;;;;16.07;14.57;;;17.30;1.00;;;;;;5027620;28;20461;-70
2023/07/20 03:48:40;;;;;;;13.20;12.00;;;17.40;1.00;;;;;;5027383;28;20560;-70
2023/07/20 03:51:08;;;;;;;12.50;11.50;;;17.40;1.00;;;;;;5026466;28;20456;-70
2023/07/20 03:53:35;;;;;;;13.63;11.70;;;17.40;1.00;;;;;;5023018;28;20472;-71
2023/07/20 03:56:02;;;;;;;13.47;12.40;;;17.30;1.00;;;;;;5024281;28;20537;-70
2023/07/20 03:58:30;;;;;;;13.47;12.17;;;17.30;1.00;;;;;;5023688;28;20473;-70
2023/07/20 04:00:58;;;;;;;13.17;12.17;;;17.30;1.00;;;;;;5019353;28;20497;-70
2023/07/20 04:03:26;;;;;;;14.23;12.67;;;17.20;1.00;;;;;;5002378;28;21073;-70
2023/07/20 04:05:55;;;;;;;12.70;11.70;;;17.20;1.00;;;;;;5000488;28;20472;-70
2023/07/20 04:08:24;;;;;;;13.77;12.50;;;17.20;1.00;;;;;;5004156;28;20480;-70
2023/07/20 04:10:51;;;;;;;10.83;10.00;;;17.30;1.00;;;;;;4997700;28;20574;-71
2023/07/20 04:13:18;;;;;;;12.60;11.40;;;17.20;1.00;;;;;;4999186;28;20533;-69
2023/07/20 04:15:45;;;;;;;11.23;9.63;;;17.20;1.00;;;;;;5002316;28;20569;-71
2023/07/20 04:18:12;;;;;;;12.37;11.27;;;17.30;1.00;;;;;;5005690;28;20470;-71
2023/07/20 04:20:39;;;;;;;12.70;10.30;;;17.30;1.00;;;;;;5005527;28;20969;-70
2023/07/20 04:23:06;;;;;;;13.30;10.47;;;17.30;1.00;;;;;;5002202;28;20496;-70
2023/07/20 04:25:38;;;;;;;11.77;10.67;;;17.40;1.00;;;;;;5005277;28;20470;-71
2023/07/20 04:28:08;;;;;;;12.60;11.60;;;17.40;1.00;;;;;;5002236;28;20474;-71
2023/07/20 04:30:36;;;;;;;11.60;10.60;;;17.50;1.00;;;;;;5002984;28;20838;-71
2023/07/20 04:33:03;;;;;;;11.43;10.53;;;17.50;1.00;;;;;;5002348;28;20472;-71
2023/07/20 04:35:47;;;;;;;12.57;11.60;;;17.60;1.00;;;;;;5008242;28;20466;-72
2023/07/20 04:38:15;;;;;;;12.40;11.20;;;17.60;1.00;;;;;;5003870;28;20459;-70
2023/07/20 04:40:44;;;;;;;13.77;12.50;;;17.60;1.00;;;;;;5006254;28;21701;-69
2023/07/20 04:43:11;;;;;;;13.13;12.00;;;17.70;1.00;;;;;;5004144;28;20541;-69
2023/07/20 04:45:37;;;;;;;12.33;11.33;;;17.70;1.00;;;;;;4999135;28;20470;-71
2023/07/20 04:48:06;;;;;;;11.90;10.90;;;17.70;1.00;;;;;;5000788;28;22639;-71
2023/07/20 04:50:33;;;;;;;11.87;10.77;;;17.70;1.00;;;;;;5007682;28;20538;-71
2023/07/20 04:53:01;;;;;;;11.17;10.27;;;17.80;1.00;;;;;;5003060;28;20485;-71
2023/07/20 04:55:29;;;;;;;10.63;9.73;;;17.90;1.00;;;;;;5004783;28;21057;-70
2023/07/20 04:57:57;;;;;;;11.73;10.73;;;17.90;1.00;;;;;;4997313;28;20465;-70
2023/07/20 05:00:24;;;;;;;10.93;9.97;;;17.90;1.00;;;;;;5002298;28;20669;-71
2023/07/20 05:02:51;;;;;;;10.40;9.50;;;18.00;1.00;;;;;;5011973;28;20473;-71
2023/07/20 05:05:18;;;;;;;10.57;9.60;;;18.00;1.00;;;;;;5025827;28;20846;-71
2023/07/20 05:07:44;;;;;;;11.70;10.60;;;18.00;1.00;;;;;;5021936;28;20480;-71
2023/07/20 05:10:12;;;;;;;11.00;10.10;;;18.00;1.00;;;;;;5021250;28;20516;-71
2023/07/20 05:12:39;;;;;;;12.77;11.67;;;18.00;1.00;;;;;;5024699;28;20493;-71
2023/07/20 05:15:08;;;;;;;12.70;11.53;;;18.10;1.00;;;;;;5015926;28;20461;-71
2023/07/20 05:17:35;;;;;;;10.93;10.13;;;18.20;1.00;;;;;;5024622;28;20484;-71
2023/07/20 05:20:04;;;;;;;10.07;9.27;;;18.30;1.00;;;;;;5024319;28;20483;-71
2023/07/20 05:22:31;;;;;;;11.23;10.03;;;18.30;1.00;;;;;;5028006;28;20465;-70
2023/07/20 05:24:59;;;;;;;9.93;9.23;;;18.30;1.00;;;;;;5014972;28;21863;-70
2023/07/20 05:27:25;;;;;;;10.17;9.33;;;18.30;1.00;;;;;;5023602;28;20897;-70
2023/07/20 05:29:52;;;;;;;9.10;8.40;;;18.20;1.00;;;;;;5023096;28;21250;-71
2023/07/20 05:32:21;;;;;;;8.47;7.77;;;18.00;1.00;;;;;;5021422;28;20458;-72
2023/07/20 05:34:48;;;;;;;8.27;7.53;;;17.90;1.00;;;;;;5024331;28;20604;-72
2023/07/20 05:37:14;;;;;;;9.17;8.03;;;17.90;1.00;;;;;;5026249;28;20550;-71
2023/07/20 05:39:41;;;;;;;7.87;7.27;;;18.00;1.00;;;;;;5014629;28;20527;-71
2023/07/20 05:42:09;;;;;;;17.40;15.67;;;18.10;1.00;;;;;;5016294;28;20538;-73
2023/07/20 05:44:36;;;;;;;14.20;8.07;;;18.30;1.00;;;;;;5022526;28;20527;-73
2023/07/20 05:47:04;;;;;;;7.00;6.40;;;18.30;1.00;;;;;;5022720;28;20598;-73
2023/07/20 05:49:32;;;;;;;9.20;7.00;;;18.50;1.00;;;;;;5024337;28;20493;-72
2023/07/20 05:52:00;;;;;;;8.60;6.80;;;18.70;1.00;;;;;;5023180;28;21004;-72
2023/07/20 05:54:28;;;;;;;6.50;6.00;;;18.70;1.00;;;;;;5010234;28;20462;-72
2023/07/20 05:56:55;;;;;;;6.90;6.23;;;18.80;1.00;;;;;;5012527;28;21011;-72
2023/07/20 05:59:23;;;;;;;7.53;6.87;;;18.70;1.00;;;;;;5013099;28;21108;-71
2023/07/20 06:01:50;;;;;;;6.70;6.10;;;18.80;1.00;;;;;;5013017;28;20462;-72
2023/07/20 06:04:17;;;;;;;7.03;6.43;;;18.90;1.00;;;;;;5007942;28;20475;-72
2023/07/20 06:06:47;;;;;;;6.57;6.07;;;19.20;1.00;;;;;;5014979;28;20597;-74
2023/07/20 06:09:15;;;;;;;10.07;9.17;;;19.20;1.00;;;;;;4978927;28;20581;-73
2023/07/20 06:11:42;;;;;;;7.10;6.50;;;19.40;1.00;;;;;;5009386;28;20500;-72
2023/07/20 06:14:09;;;;;;;7.07;6.57;;;19.40;1.00;;;;;;5010653;28;20611;-71
2023/07/20 06:16:36;;;;;;;7.73;6.47;;;19.30;1.00;;;;;;5008236;28;21337;-69
2023/07/20 06:19:03;;;;;;;8.27;7.50;;;19.20;1.00;;;;;;5010433;28;20543;-70
2023/07/20 06:21:30;;;;;;;7.87;7.23;;;19.20;1.00;;;;;;5014381;28;20614;-69
2023/07/20 06:23:59;;;;;;;8.27;7.57;;;19.20;1.00;;;;;;5007183;28;20491;-70
2023/07/20 06:26:26;;;;;;;9.43;8.43;;;19.30;1.00;;;;;;5011008;28;20473;-70
2023/07/20 06:28:53;;;;;;;8.80;8.00;;;19.20;1.00;;;;;;5018069;28;21189;-71
2023/07/20 06:31:20;;;;;;;8.97;8.07;;;19.20;1.00;;;;;;5021467;28;20462;-70
2023/07/20 06:33:47;;;;;;;8.73;7.93;;;19.00;1.00;;;;;;5019505;28;20462;-70
2023/07/20 06:36:14;;;;;;;7.57;6.97;;;19.00;1.00;;;;;;5021158;28;20923;-71
2023/07/20 06:38:41;;;;;;;7.50;6.80;;;18.90;1.00;;;;;;5018756;28;20470;-70
2023/07/20 06:41:09;;;;;;;6.80;6.30;;;18.80;1.00;;;;;;5020081;28;20498;-70
2023/07/20 06:43:36;;;;;;;6.80;6.20;;;18.70;1.00;;;;;;5021969;28;20502;-71
2023/07/20 06:46:03;;;;;;;6.83;6.27;;;18.80;1.00;;;;;;5023425;28;20504;-70
2023/07/20 06:48:30;;;;;;;5.80;5.40;;;18.90;1.00;;;;;;5022044;28;20456;-69
2023/07/20 06:50:57;;;;;;;7.03;5.03;;;18.90;1.00;;;;;;4999664;28;20535;-70
2023/07/20 06:53:24;;;;;;;4.77;4.37;;;19.00;1.00;;;;;;5020481;28;20487;-70
2023/07/20 06:55:51;;;;;;;5.20;4.70;;;19.20;1.00;;;;;;5009529;28;20480;-71
2023/07/20 06:58:21;;;;;;;5.80;5.30;;;19.30;1.00;;;;;;5008793;28;20626;-69
2023/07/20 07:00:48;;;;;;;5.80;5.23;;;19.40;1.00;;;;;;5013036;28;20819;-68
2023/07/20 07:03:15;;;;;;;4.03;3.60;;;19.60;1.00;;;;;;5020254;28;20476;-69
2023/07/20 07:05:42;;;;;;;3.77;3.30;;;19.40;1.00;;;;;;5014450;28;20475;-71
2023/07/20 07:08:09;;;;;;;4.10;3.70;;;19.40;1.00;;;;;;5025215;28;20480;-69
2023/07/20 07:10:37;;;;;;;5.00;3.60;;;19.40;1.00;;;;;;5017733;28;20467;-69
2023/07/20 07:13:04;;;;;;;4.57;4.17;;;19.50;1.00;;;;;;5019585;28;21039;-68
2023/07/20 07:15:33;;;;;;;3.57;3.27;;;19.60;1.00;;;;;;5014887;28;20513;-69
2023/07/20 07:18:00;;;;;;;5.63;3.63;;;19.50;1.00;;;;;;5023855;28;20474;-69
2023/07/20 07:20:27;;;;;;;3.10;2.90;;;19.40;1.00;;;;;;5017305;28;20521;-68
2023/07/20 07:22:55;;;;;;;4.77;3.10;;;19.40;1.00;;;;;;5026443;28;20472;-69
2023/07/20 07:25:22;;;;;;;3.83;3.37;;;19.30;1.00;;;;;;5019534;28;20780;-68
2023/07/20 07:27:49;;;;;;;3.10;2.80;;;19.50;1.00;;;;;;5021708;28;20461;-68
2023/07/20 07:30:17;;;;;;;2.90;2.70;;;19.70;1.00;;;;;;5020887;28;20464;-67
2023/07/20 07:32:45;;;;;;;3.27;3.03;;;19.90;1.00;;;;;;5022489;28;20467;-69
2023/07/20 07:35:12;;;;;;;3.93;2.57;;;20.20;1.00;;;;;;5020511;28;20853;-70
2023/07/20 07:37:39;;;;;;;3.00;2.60;;;20.10;1.00;;;;;;5021781;28;20480;-70
2023/07/20 07:40:08;;;;;;;3.63;2.97;;;20.00;1.00;;;;;;5018750;28;20471;-69
2023/07/20 07:42:36;;;;;;;2.13;1.90;;;20.10;1.00;;;;;;5019203;28;20564;-69
2023/07/20 07:45:03;;;;;;;2.33;2.13;;;20.20;1.00;;;;;;5022303;28;22152;-71
2023/07/20 07:47:29;;;;;;;5.13;2.43;;;20.40;1.00;;;;;;5023517;28;20928;-72
2023/07/20 07:49:58;;;;;;;2.07;1.70;;;20.70;1.00;;;;;;5019091;28;20457;-70
2023/07/20 07:52:25;;;;;;;2.20;1.33;;;20.90;1.00;;;;;;5023018;28;20874;-71
2023/07/20 07:54:52;;;;;;;1.27;1.17;;;20.80;1.00;;;;;;5019904;28;20477;-69
2023/07/20 07:57:19;;;;;;;2.30;1.60;;;20.80;1.00;;;;;;5020100;28;21043;-72
2023/07/20 07:59:46;;;;;;;2.73;1.70;;;21.00;1.00;;;;;;5023379;28;21487;-70
2023/07/20 08:02:13;;;;;;;2.10;2.00;;;21.10;1.00;;;;;;5021119;28;20886;-70
2023/07/20 08:04:40;;;;;;;2.73;2.40;;;21.30;1.00;;;;;;5022227;28;20584;-72
2023/07/20 08:07:08;;;;;;;2.20;1.40;;;21.40;1.00;;;;;;5023111;28;21377;-70
2023/07/20 08:09:35;;;;;;;2.97;1.33;;;21.50;1.00;;;;;;5022482;28;21370;-69
2023/07/20 08:12:03;;;;;;;1.87;1.60;;;21.60;1.00;;;;;;5018201;28;20418;-71
2023/07/20 08:14:30;;;;;;;1.80;1.53;;;21.60;1.00;;;;;;5021250;28;20463;-69
2023/07/20 08:16:58;;;;;;;2.60;1.97;;;21.70;1.00;;;;;;5019589;28;20535;-70
2023/07/20 08:19:25;;;;;;;2.07;1.70;;;21.90;1.00;;;;;;5020111;28;20468;-71
2023/07/20 08:21:52;;;;;;;2.67;1.90;;;22.20;1.00;;;;;;5032567;28;20463;-70
2023/07/20 08:24:20;;;;;;;3.17;2.40;;;22.30;1.00;;;;;;5022148;28;20491;-70
2023/07/20 08:26:47;;;;;;;4.63;2.27;;;22.30;1.00;;;;;;5022516;28;20522;-70
2023/07/20 08:29:14;;;;;;;2.33;2.10;;;22.10;1.00;;;;;;5000636;28;20554;-71
2023/07/20 08:31:41;;;;;;;2.00;1.37;;;22.10;1.00;;;;;;5022882;28;20484;-71
2023/07/20 08:34:08;;;;;;;1.83;1.10;;;22.10;1.00;;;;;;5019955;28;21022;-69
2023/07/20 08:36:35;;;;;;;2.00;1.40;;;22.20;1.00;;;;;;5019237;28;20439;-70
2023/07/20 08:39:03;;;;;;;1.50;1.40;;;22.50;1.00;;;;;;5023361;28;20573;-72
2023/07/20 08:41:31;;;;;;;1.30;1.10;;;22.50;1.00;;;;;;5023809;28;21214;-70
2023/07/20 08:43:59;;;;;;;1.30;1.10;;;22.50;1.00;;;;;;5019780;28;21062;-70
2023/07/20 08:46:29;;;;;;;4.03;1.50;;;22.50;1.00;;;;;;5002597;28;21040;-70
2023/07/20 08:48:57;;;;;;;1.53;1.13;;;22.70;1.00;;;;;;5021700;28;20470;-70
2023/07/20 08:51:25;;;;;;;1.83;1.13;;;22.90;1.00;;;;;;5020876;28;20463;-70
2023/07/20 08:53:53;;;;;;;5.80;1.60;;;22.90;1.00;;;;;;5023307;28;20505;-72
2023/07/20 08:56:21;;;;;;;2.27;1.60;;;22.80;1.00;;;;;;5025091;28;20468;-70
2023/07/20 08:58:50;;;;;;;1.83;1.30;;;22.80;1.00;;;;;;5020183;28;20454;-71
2023/07/20 09:01:19;;;;;;;1.70;1.20;;;22.70;1.00;;;;;;5017390;28;20465;-70
2023/07/20 09:03:47;;;;;;;1.50;1.00;;;22.60;1.00;;;;;;5019358;28;20522;-70
2023/07/20 09:06:14;;;;;;;1.20;0.83;;;22.40;1.00;;;;;;5020326;28;20453;-70
2023/07/20 09:08:41;;;;;;;7.37;6.87;;;22.00;1.00;;;;;;5021069;28;20590;-71
2023/07/20 09:11:09;;;;;;;3.43;1.27;;;21.90;1.00;;;;;;5021456;28;20484;-70
2023/07/20 09:13:36;;;;;;;1.77;1.20;;;21.90;1.00;;;;;;5022923;28;21230;-69
2023/07/20 09:16:05;;;;;;;1.10;1.00;;;22.00;1.00;;;;;;5021852;28;20490;-68
2023/07/20 09:18:34;;;;;;;1.20;1.10;;;22.30;1.00;;;;;;5022314;28;20566;-72
2023/07/20 09:21:03;;;;;;;1.33;0.93;;;22.50;1.00;;;;;;5024494;28;20509;-68
2023/07/20 09:23:34;;;;;;;1.10;0.87;;;23.00;1.00;;;;;;5021828;28;20476;-71
2023/07/20 09:26:01;;;;;;;1.70;0.80;;;23.30;1.00;;;;;;5014589;28;20461;-70
2023/07/20 09:28:29;;;;;;;1.70;1.20;;;23.40;1.00;;;;;;5021730;28;20484;-70
2023/07/20 09:30:58;;;;;;;1.67;1.27;;;23.40;1.00;;;;;;5022488;28;20586;-71
2023/07/20 09:33:26;;;;;;;1.10;0.90;;;23.60;1.00;;;;;;5019927;28;20564;-72
2023/07/20 09:35:53;;;;;;;2.43;1.00;;;23.80;1.00;;;;;;5022533;28;21726;-72
2023/07/20 09:38:20;;;;;;;5.00;1.20;;;24.00;1.00;;;;;;5024850;28;20901;-71
2023/07/20 09:40:47;;;;;;;1.77;1.60;;;24.40;1.00;;;;;;5019143;28;20467;-71
2023/07/20 09:43:17;;;;;;;1.63;1.00;;;24.70;1.00;;;;;;5021038;28;20459;-72
2023/07/20 09:45:44;;;;;;;1.30;0.97;;;25.30;1.00;;;;;;5020034;28;20544;-72
2023/07/20 09:48:12;;;;;;;2.70;0.80;;;25.50;1.00;;;;;;5020004;28;20538;-72
2023/07/20 09:50:49;;;;;;;2.93;1.13;;;25.20;1.00;;;;;;5022090;28;20453;-71
2023/07/20 09:53:18;;;;;;;1.20;1.10;;;24.90;1.00;;;;;;5010206;28;20451;-71
2023/07/20 09:55:47;;;;;;;1.63;1.00;;;24.30;1.00;;;;;;5020576;28;20527;-71
2023/07/20 09:58:15;;;;;;;1.33;0.93;;;23.90;1.00;;;;;;5012290;28;20458;-71
2023/07/20 10:00:44;;;;;;;2.00;1.27;;;23.50;1.00;;;;;;5034799;28;20915;-71
2023/07/20 10:03:13;;;;;;;1.13;0.90;;;22.90;1.00;;;;;;5025144;28;20473;-71
2023/07/20 10:05:44;;;;;;;2.07;1.20;;;22.60;1.00;;;;;;5026201;28;20489;-70
2023/07/20 10:08:13;;;;;;;2.67;1.27;;;22.20;1.00;;;;;;5024581;28;20451;-70
2023/07/20 10:10:43;;;;;;;1.37;1.00;;;21.70;1.00;;;;;;5022694;28;20470;-71
2023/07/20 10:13:14;;;;;;;1.43;1.33;;;20.90;1.00;;;;;;5018779;28;21040;-69
2023/07/20 10:15:47;;;;;;;2.10;1.67;;;20.30;1.00;;;;;;5021985;28;20614;-71
2023/07/20 10:18:23;;;;;;;2.30;2.10;;;19.70;1.00;;;;;;5019293;28;20458;-73
2023/07/20 10:20:52;;;;;;;1.90;1.70;;;19.40;1.00;;;;;;5022060;28;20503;-72
2023/07/20 10:23:20;;;;;;;2.27;1.90;;;19.40;1.00;;;;;;5019269;28;20511;-70
2023/07/20 10:25:51;;;;;;;2.43;1.50;;;19.60;1.00;;;;;;5015758;28;20563;-72
2023/07/20 10:28:18;;;;;;;5.27;1.77;;;19.90;1.00;;;;;;5016114;28;20648;-70
2023/07/20 10:30:46;;;;;;;1.93;1.40;;;20.40;1.00;;;;;;5020578;28;20461;-71
2023/07/20 10:33:14;;;;;;;3.57;2.50;;;20.90;1.00;;;;;;5013762;28;20468;-70
2023/07/20 10:35:55;;;;;;;3.80;3.50;;;21.20;1.00;;;;;;5017484;28;20537;-71
2023/07/20 10:38:40;;;;;;;2.57;1.50;;;21.60;1.00;;;;;;5018247;28;20548;-70
2023/07/20 10:41:18;;;;;;;1.70;1.30;;;21.90;1.00;;;;;;5017226;28;20498;-71
2023/07/20 10:43:45;;;;;;;3.33;1.80;;;22.00;1.00;;;;;;5018245;28;20477;-70
2023/07/20 10:46:13;;;;;;;2.33;1.70;;;21.70;1.00;;;;;;5001464;28;20465;-70
2023/07/20 10:49:01;;;;;;;2.30;1.50;;;21.50;1.00;;;;;;5016763;28;20576;-70
2023/07/20 10:51:29;;;;;;;2.73;1.97;;;21.50;1.00;;;;;;5018280;28;20458;-71
2023/07/20 10:53:59;;;;;;;4.70;1.47;;;21.80;1.00;;;;;;5023168;28;20476;-71
2023/07/20 10:56:29;;;;;;;2.00;1.50;;;21.80;1.00;;;;;;5022305;28;20539;-71
2023/07/20 10:58:59;;;;;;;1.60;1.30;;;21.60;1.00;;;;;;5022561;28;21136;-71
2023/07/20 11:01:30;;;;;;;3.17;1.43;;;21.80;1.00;;;;;;5017564;28;22562;-74
2023/07/20 11:04:00;;;;;;;1.67;1.53;;;21.90;1.00;;;;;;5003691;28;20472;-70
2023/07/20 11:06:34;;;;;;;2.53;1.50;;;21.90;1.00;;;;;;4996867;28;20447;-71
2023/07/20 11:09:10;;;;;;;3.40;1.47;;;21.90;1.00;;;;;;4998938;28;20483;-70
2023/07/20 11:11:39;;;;;;;2.10;1.97;;;21.70;1.00;;;;;;5000130;28;20473;-72
2023/07/20 11:14:07;;;;;;;1.60;1.50;;;21.60;1.00;;;;;;4999912;28;20585;-72
2023/07/20 11:16:40;;;;;;;2.73;2.07;;;21.60;1.00;;;;;;5001569;28;20506;-72
2023/07/20 11:19:15;;;;;;;7.33;1.80;;;21.80;1.00;;;;;;5006368;28;20491;-72
2023/07/20 11:21:43;;;;;;;6.57;3.50;;;22.40;1.00;;;;;;5009053;28;20460;-71
2023/07/20 11:24:13;;;;;;;2.90;1.60;;;23.70;1.00;;;;;;5008292;28;20537;-72
2023/07/20 11:26:51;;;;;;;4.20;2.20;;;24.30;1.00;;;;;;5003196;28;20929;-73
2023/07/20 11:29:19;;;;;;;3.37;1.40;;;24.70;1.00;;;;;;4998510;28;20448;-72
2023/07/20 11:31:47;;;;;;;2.17;1.80;;;24.70;1.00;;;;;;5004325;28;20473;-71
2023/07/20 11:34:16;;;;;;;2.33;1.60;;;24.60;1.00;;;;;;5002966;28;20489;-71
2023/07/20 11:36:45;;;;;;;1.70;1.60;;;24.50;1.00;;;;;;5003999;28;20595;-72
2023/07/20 11:39:15;;;;;;;2.17;1.50;;;24.20;1.00;;;;;;5001014;28;20478;-71
2023/07/20 11:41:47;;;;;;;3.03;1.33;;;23.80;1.00;;;;;;5004115;28;21076;-72
2023/07/20 11:44:16;;;;;;;2.00;1.27;;;24.20;1.00;;;;;;5000848;28;20876;-71
2023/07/20 11:46:44;;;;;;;2.90;1.47;;;25.60;1.00;;;;;;4999182;28;20548;-71
2023/07/20 11:49:11;;;;;;;2.17;1.47;;;26.00;1.00;;;;;;5001875;28;20463;-70
2023/07/20 11:51:39;;;;;;;1.93;1.00;;;25.60;1.00;;;;;;5001384;28;20471;-71
2023/07/20 11:54:08;;;;;;;1.30;1.20;;;26.10;1.00;;;;;;5000503;28;20554;-71
2023/07/20 11:56:37;;;;;;;2.70;1.10;;;28.20;1.00;;;;;;4995275;28;20451;-71
2023/07/20 11:59:04;;;;;;;2.90;1.20;;;29.30;1.00;;;;;;4997167;28;20851;-72
2023/07/20 12:01:33;;;;;;;4.60;1.20;;;29.20;1.00;;;;;;5001324;28;20925;-72
2023/07/20 12:04:01;;;;;;;1.80;1.40;;;29.20;1.00;;;;;;4996416;28;20469;-72
2023/07/20 12:06:30;;;;;;;2.47;0.90;;;30.50;1.00;;;;;;5005108;28;20465;-74
2023/07/20 12:08:58;;;;;;;1.17;0.87;;;31.30;1.00;;;;;;5002529;28;20493;-74
2023/07/20 12:11:33;;;;;;;1.43;0.80;;;30.70;1.00;;;;;;5003157;28;20483;-73
2023/07/20 12:14:02;;;;;;;1.40;1.10;;;29.30;1.00;;;;;;4998422;28;20470;-73
2023/07/20 12:16:30;;;;;;;1.00;0.80;;;27.90;1.00;;;;;;5002576;28;20473;-73
2023/07/20 12:19:01;;;;;;;1.20;0.80;;;26.70;1.00;;;;;;4999471;28;20527;-72
2023/07/20 12:21:35;;;;;;;2.43;1.27;;;25.60;1.00;;;;;;4999798;28;20509;-73
2023/07/20 12:24:02;;;;;;;2.10;0.97;;;24.70;1.00;;;;;;5000660;28;20506;-73
2023/07/20 12:26:33;;;;;;;1.47;1.20;;;24.00;1.00;;;;;;5006151;28;20470;-73
2023/07/20 12:29:03;;;;;;;1.83;0.90;;;23.40;1.00;;;;;;4999648;28;20466;-74
2023/07/20 12:31:30;;;;;;;0.80;0.77;;;22.90;1.00;;;;;;5004228;28;20462;-74
2023/07/20 12:33:59;;;;;;;1.90;1.30;;;22.60;1.00;;;;;;5001309;28;20598;-74
2023/07/20 12:36:26;;;;;;;1.93;1.23;;;22.50;1.00;;;;;;5005520;28;20536;-73
2023/07/20 12:38:53;;;;;;;2.47;1.13;;;22.70;1.00;;;;;;5000130;28;20469;-75
2023/07/20 12:41:20;;;;;;;1.00;0.90;;;23.40;1.00;;;;;;4999410;28;21073;-73
2023/07/20 12:43:47;;;;;;;1.70;1.40;;;23.80;1.00;;;;;;5005612;28;20664;-73
2023/07/20 12:46:15;;;;;;;1.80;1.33;;;23.90;1.00;;;;;;5005065;28;20465;-73
2023/07/20 12:48:43;;;;;;;1.37;1.27;;;24.10;1.00;;;;;;5002418;28;20465;-73
2023/07/20 12:51:11;;;;;;;3.73;1.10;;;24.40;1.00;;;;;;4999534;28;21682;-74
2023/07/20 12:53:39;;;;;;;2.83;0.90;;;24.70;1.00;;;;;;4995410;28;20510;-74
2023/07/20 12:56:06;;;;;;;1.17;0.90;;;26.00;1.00;;;;;;4999029;28;20489;-74
2023/07/20 12:58:33;;;;;;;1.53;1.00;;;28.30;1.00;;;;;;5004051;28;20610;-75
2023/07/20 13:01:00;;;;;;;1.20;1.10;;;30.30;1.00;;;;;;5000089;28;20496;-75